sensor_id;sensor_type;location;lat;lon;timestamp;P1;durP1;ratioP1;P2;durP2;ratioP2
22549;SDS011;11441;57.164;-2.120;2023-05-07T00:01:28;18.65;;;4.55;;
22549;SDS011;11441;57.164;-2.120;2023-05-07T00:04:12;39.33;;;6.15;;
22549;SDS011;11441;57.164;-2.120;2023-05-07T00:06:39;30.83;;;6.82;;
22549;SDS011;11441;57.164;-2.120;2023-05-07T00:09:06;27.65;;;5.82;;
22549;SDS011;11441;57.164;-2.120;2023-05-07T00:11:33;29.75;;;5.50;;
22549;SDS011;11441;57.164;-2.120;2023-05-07T00:14:02;29.60;;;6.20;;
22549;SDS011;11441;57.164;-2.120;2023-05-07T00:16:29;33.17;;;6.10;;
22549;SDS011;11441;57.164;-2.120;2023-05-07T00:18:56;18.20;;;4.70;;
22549;SDS011;11441;57.164;-2.120;2023-05-07T00:21:23;27.75;;;5.05;;
22549;SDS011;11441;57.164;-2.120;2023-05-07T00:23:53;17.77;;;4.25;;
22549;SDS011;11441;57.164;-2.120;2023-05-07T00:26:20;21.95;;;5.72;;
22549;SDS011;11441;57.164;-2.120;2023-05-07T00:28:50;16.00;;;5.15;;
22549;SDS011;11441;57.164;-2.120;2023-05-07T00:31:16;42.10;;;7.35;;
22549;SDS011;11441;57.164;-2.120;2023-05-07T00:33:43;32.42;;;6.78;;
22549;SDS011;11441;57.164;-2.120;2023-05-07T00:36:10;32.97;;;8.45;;
22549;SDS011;11441;57.164;-2.120;2023-05-07T00:38:56;37.45;;;8.73;;
22549;SDS011;11441;57.164;-2.120;2023-05-07T00:41:23;22.35;;;6.10;;
22549;SDS011;11441;57.164;-2.120;2023-05-07T00:43:51;24.65;;;4.85;;
22549;SDS011;11441;57.164;-2.120;2023-05-07T00:46:19;34.83;;;6.60;;
22549;SDS011;11441;57.164;-2.120;2023-05-07T00:48:47;46.83;;;8.32;;
22549;SDS011;11441;57.164;-2.120;2023-05-07T00:51:14;50.17;;;7.93;;
22549;SDS011;11441;57.164;-2.120;2023-05-07T00:53:42;40.20;;;6.43;;
22549;SDS011;11441;57.164;-2.120;2023-05-07T00:56:08;30.58;;;6.60;;
22549;SDS011;11441;57.164;-2.120;2023-05-07T00:58:36;48.38;;;7.70;;
22549;SDS011;11441;57.164;-2.120;2023-05-07T01:01:03;46.28;;;7.53;;
22549;SDS011;11441;57.164;-2.120;2023-05-07T01:03:30;32.70;;;6.30;;
22549;SDS011;11441;57.164;-2.120;2023-05-07T01:05:57;51.90;;;8.50;;
22549;SDS011;11441;57.164;-2.120;2023-05-07T01:08:26;31.55;;;6.38;;
22549;SDS011;11441;57.164;-2.120;2023-05-07T01:10:56;60.88;;;6.88;;
22549;SDS011;11441;57.164;-2.120;2023-05-07T01:13:23;87.95;;;8.02;;
22549;SDS011;11441;57.164;-2.120;2023-05-07T01:15:51;37.47;;;6.32;;
22549;SDS011;11441;57.164;-2.120;2023-05-07T01:18:18;32.33;;;6.10;;
22549;SDS011;11441;57.164;-2.120;2023-05-07T01:20:45;52.58;;;6.78;;
22549;SDS011;11441;57.164;-2.120;2023-05-07T01:26:17;32.90;;;5.85;;
22549;SDS011;11441;57.164;-2.120;2023-05-07T01:28:46;40.95;;;5.43;;
22549;SDS011;11441;57.164;-2.120;2023-05-07T01:31:13;57.67;;;8.00;;
22549;SDS011;11441;57.164;-2.120;2023-05-07T01:33:40;52.70;;;7.10;;
22549;SDS011;11441;57.164;-2.120;2023-05-07T01:36:11;51.20;;;7.68;;
22549;SDS011;11441;57.164;-2.120;2023-05-07T01:38:39;32.55;;;5.90;;
22549;SDS011;11441;57.164;-2.120;2023-05-07T01:41:06;35.13;;;6.43;;
22549;SDS011;11441;57.164;-2.120;2023-05-07T01:43:52;37.78;;;6.03;;
22549;SDS011;11441;57.164;-2.120;2023-05-07T01:46:20;26.60;;;5.85;;
22549;SDS011;11441;57.164;-2.120;2023-05-07T01:48:48;49.90;;;8.80;;
22549;SDS011;11441;57.164;-2.120;2023-05-07T01:51:16;34.38;;;6.32;;
22549;SDS011;11441;57.164;-2.120;2023-05-07T01:53:43;26.65;;;6.57;;
22549;SDS011;11441;57.164;-2.120;2023-05-07T01:56:12;29.80;;;7.80;;
22549;SDS011;11441;57.164;-2.120;2023-05-07T01:58:41;44.15;;;8.55;;
22549;SDS011;11441;57.164;-2.120;2023-05-07T02:01:08;33.92;;;7.90;;
22549;SDS011;11441;57.164;-2.120;2023-05-07T02:03:34;28.98;;;7.50;;
22549;SDS011;11441;57.164;-2.120;2023-05-07T02:06:09;19.83;;;6.68;;
22549;SDS011;11441;57.164;-2.120;2023-05-07T02:08:38;21.75;;;5.70;;
22549;SDS011;11441;57.164;-2.120;2023-05-07T02:11:05;28.48;;;6.57;;
22549;SDS011;11441;57.164;-2.120;2023-05-07T02:13:33;32.00;;;6.50;;
22549;SDS011;11441;57.164;-2.120;2023-05-07T02:16:03;27.33;;;6.82;;
22549;SDS011;11441;57.164;-2.120;2023-05-07T02:18:30;31.73;;;6.90;;
22549;SDS011;11441;57.164;-2.120;2023-05-07T02:20:58;36.17;;;6.13;;
22549;SDS011;11441;57.164;-2.120;2023-05-07T02:23:25;32.05;;;6.75;;
22549;SDS011;11441;57.164;-2.120;2023-05-07T02:25:52;27.08;;;5.57;;
22549;SDS011;11441;57.164;-2.120;2023-05-07T02:28:19;17.88;;;4.65;;
22549;SDS011;11441;57.164;-2.120;2023-05-07T02:30:52;26.70;;;5.93;;
22549;SDS011;11441;57.164;-2.120;2023-05-07T02:33:20;36.03;;;6.50;;
22549;SDS011;11441;57.164;-2.120;2023-05-07T02:35:47;33.00;;;6.53;;
22549;SDS011;11441;57.164;-2.120;2023-05-07T02:38:15;21.25;;;5.97;;
22549;SDS011;11441;57.164;-2.120;2023-05-07T02:41:00;21.95;;;5.68;;
22549;SDS011;11441;57.164;-2.120;2023-05-07T02:43:27;24.73;;;5.72;;
22549;SDS011;11441;57.164;-2.120;2023-05-07T02:46:05;23.98;;;5.78;;
22549;SDS011;11441;57.164;-2.120;2023-05-07T02:48:36;29.38;;;5.75;;
22549;SDS011;11441;57.164;-2.120;2023-05-07T02:51:03;23.80;;;6.47;;
22549;SDS011;11441;57.164;-2.120;2023-05-07T02:53:33;19.65;;;7.05;;
22549;SDS011;11441;57.164;-2.120;2023-05-07T02:56:00;15.60;;;6.03;;
22549;SDS011;11441;57.164;-2.120;2023-05-07T02:58:28;34.63;;;7.03;;
22549;SDS011;11441;57.164;-2.120;2023-05-07T03:01:13;20.50;;;6.97;;
22549;SDS011;11441;57.164;-2.120;2023-05-07T03:03:49;19.45;;;6.13;;
22549;SDS011;11441;57.164;-2.120;2023-05-07T03:06:16;46.28;;;8.88;;
22549;SDS011;11441;57.164;-2.120;2023-05-07T03:08:43;18.35;;;5.53;;
22549;SDS011;11441;57.164;-2.120;2023-05-07T03:11:10;20.77;;;6.25;;
22549;SDS011;11441;57.164;-2.120;2023-05-07T03:13:37;33.75;;;6.93;;
22549;SDS011;11441;57.164;-2.120;2023-05-07T03:16:03;16.25;;;4.97;;
22549;SDS011;11441;57.164;-2.120;2023-05-07T03:18:31;22.45;;;6.63;;
22549;SDS011;11441;57.164;-2.120;2023-05-07T03:20:58;35.03;;;8.00;;
22549;SDS011;11441;57.164;-2.120;2023-05-07T03:23:25;35.03;;;7.22;;
22549;SDS011;11441;57.164;-2.120;2023-05-07T03:25:51;31.27;;;6.80;;
22549;SDS011;11441;57.164;-2.120;2023-05-07T03:28:18;47.47;;;9.05;;
22549;SDS011;11441;57.164;-2.120;2023-05-07T03:30:51;40.55;;;9.07;;
22549;SDS011;11441;57.164;-2.120;2023-05-07T03:33:18;36.80;;;7.72;;
22549;SDS011;11441;57.164;-2.120;2023-05-07T03:35:45;66.45;;;10.38;;
22549;SDS011;11441;57.164;-2.120;2023-05-07T03:38:18;32.85;;;8.35;;
22549;SDS011;11441;57.164;-2.120;2023-05-07T03:40:45;35.15;;;7.47;;
22549;SDS011;11441;57.164;-2.120;2023-05-07T03:43:12;48.08;;;8.38;;
22549;SDS011;11441;57.164;-2.120;2023-05-07T03:45:43;66.82;;;9.30;;
22549;SDS011;11441;57.164;-2.120;2023-05-07T03:48:18;61.78;;;9.02;;
22549;SDS011;11441;57.164;-2.120;2023-05-07T03:50:46;29.67;;;7.80;;
22549;SDS011;11441;57.164;-2.120;2023-05-07T03:53:16;47.00;;;7.15;;
22549;SDS011;11441;57.164;-2.120;2023-05-07T03:55:43;64.80;;;8.48;;
22549;SDS011;11441;57.164;-2.120;2023-05-07T03:58:10;84.15;;;10.57;;
22549;SDS011;11441;57.164;-2.120;2023-05-07T04:00:38;65.07;;;8.07;;
22549;SDS011;11441;57.164;-2.120;2023-05-07T04:03:26;71.85;;;10.30;;
22549;SDS011;11441;57.164;-2.120;2023-05-07T04:05:57;48.88;;;9.00;;
22549;SDS011;11441;57.164;-2.120;2023-05-07T04:08:23;53.42;;;9.18;;
22549;SDS011;11441;57.164;-2.120;2023-05-07T04:13:38;48.70;;;9.13;;
22549;SDS011;11441;57.164;-2.120;2023-05-07T04:16:07;78.40;;;10.95;;
22549;SDS011;11441;57.164;-2.120;2023-05-07T04:18:36;81.38;;;10.82;;
22549;SDS011;11441;57.164;-2.120;2023-05-07T04:21:21;76.32;;;11.23;;
22549;SDS011;11441;57.164;-2.120;2023-05-07T04:23:49;67.07;;;9.63;;
22549;SDS011;11441;57.164;-2.120;2023-05-07T04:26:16;57.40;;;9.25;;
22549;SDS011;11441;57.164;-2.120;2023-05-07T04:29:02;68.47;;;11.10;;
22549;SDS011;11441;57.164;-2.120;2023-05-07T04:31:32;83.05;;;11.48;;
22549;SDS011;11441;57.164;-2.120;2023-05-07T04:34:18;50.40;;;8.75;;
22549;SDS011;11441;57.164;-2.120;2023-05-07T04:36:45;79.53;;;10.98;;
22549;SDS011;11441;57.164;-2.120;2023-05-07T04:39:12;74.28;;;10.73;;
22549;SDS011;11441;57.164;-2.120;2023-05-07T04:41:42;38.10;;;8.63;;
22549;SDS011;11441;57.164;-2.120;2023-05-07T04:44:09;73.43;;;10.85;;
22549;SDS011;11441;57.164;-2.120;2023-05-07T04:46:37;56.35;;;9.20;;
22549;SDS011;11441;57.164;-2.120;2023-05-07T04:49:04;44.28;;;9.50;;
22549;SDS011;11441;57.164;-2.120;2023-05-07T04:51:32;78.70;;;10.95;;
22549;SDS011;11441;57.164;-2.120;2023-05-07T04:53:59;56.78;;;8.50;;
22549;SDS011;11441;57.164;-2.120;2023-05-07T04:56:28;57.75;;;6.90;;
22549;SDS011;11441;57.164;-2.120;2023-05-07T04:58:59;73.07;;;8.40;;
22549;SDS011;11441;57.164;-2.120;2023-05-07T05:01:27;83.55;;;8.55;;
22549;SDS011;11441;57.164;-2.120;2023-05-07T05:03:54;77.43;;;7.93;;
22549;SDS011;11441;57.164;-2.120;2023-05-07T05:06:21;85.20;;;8.77;;
22549;SDS011;11441;57.164;-2.120;2023-05-07T05:08:49;70.57;;;7.57;;
22549;SDS011;11441;57.164;-2.120;2023-05-07T05:11:16;49.28;;;7.55;;
22549;SDS011;11441;57.164;-2.120;2023-05-07T05:13:44;104.63;;;10.02;;
22549;SDS011;11441;57.164;-2.120;2023-05-07T05:16:15;54.03;;;7.70;;
22549;SDS011;11441;57.164;-2.120;2023-05-07T05:18:42;62.20;;;7.63;;
22549;SDS011;11441;57.164;-2.120;2023-05-07T05:21:12;127.18;;;11.65;;
22549;SDS011;11441;57.164;-2.120;2023-05-07T05:23:40;101.93;;;9.98;;
22549;SDS011;11441;57.164;-2.120;2023-05-07T05:26:07;84.38;;;9.25;;
22549;SDS011;11441;57.164;-2.120;2023-05-07T05:28:35;84.50;;;9.57;;
22549;SDS011;11441;57.164;-2.120;2023-05-07T05:31:03;85.75;;;9.27;;
22549;SDS011;11441;57.164;-2.120;2023-05-07T05:33:33;99.00;;;8.63;;
22549;SDS011;11441;57.164;-2.120;2023-05-07T05:36:03;48.22;;;7.28;;
22549;SDS011;11441;57.164;-2.120;2023-05-07T05:38:31;97.95;;;10.40;;
22549;SDS011;11441;57.164;-2.120;2023-05-07T05:40:58;74.30;;;9.52;;
22549;SDS011;11441;57.164;-2.120;2023-05-07T05:43:25;101.93;;;10.82;;
22549;SDS011;11441;57.164;-2.120;2023-05-07T05:45:52;72.38;;;8.90;;
22549;SDS011;11441;57.164;-2.120;2023-05-07T05:48:19;122.40;;;11.30;;
22549;SDS011;11441;57.164;-2.120;2023-05-07T05:50:46;88.28;;;9.35;;
22549;SDS011;11441;57.164;-2.120;2023-05-07T05:53:15;98.90;;;10.45;;
22549;SDS011;11441;57.164;-2.120;2023-05-07T05:55:43;95.28;;;10.73;;
22549;SDS011;11441;57.164;-2.120;2023-05-07T05:58:11;75.60;;;9.07;;
22549;SDS011;11441;57.164;-2.120;2023-05-07T06:00:43;89.00;;;9.40;;
22549;SDS011;11441;57.164;-2.120;2023-05-07T06:03:11;93.03;;;10.35;;
22549;SDS011;11441;57.164;-2.120;2023-05-07T06:05:41;73.05;;;9.65;;
22549;SDS011;11441;57.164;-2.120;2023-05-07T06:08:07;52.17;;;7.85;;
22549;SDS011;11441;57.164;-2.120;2023-05-07T06:10:35;101.97;;;11.90;;
22549;SDS011;11441;57.164;-2.120;2023-05-07T06:13:05;85.90;;;10.20;;
22549;SDS011;11441;57.164;-2.120;2023-05-07T06:15:33;93.57;;;11.48;;
22549;SDS011;11441;57.164;-2.120;2023-05-07T06:18:05;107.43;;;12.45;;
22549;SDS011;11441;57.164;-2.120;2023-05-07T06:20:32;91.57;;;11.32;;
22549;SDS011;11441;57.164;-2.120;2023-05-07T06:23:02;67.38;;;8.85;;
22549;SDS011;11441;57.164;-2.120;2023-05-07T06:25:31;68.55;;;10.38;;
22549;SDS011;11441;57.164;-2.120;2023-05-07T06:28:20;86.25;;;11.02;;
22549;SDS011;11441;57.164;-2.120;2023-05-07T06:30:46;49.97;;;9.88;;
22549;SDS011;11441;57.164;-2.120;2023-05-07T06:33:34;57.63;;;9.75;;
22549;SDS011;11441;57.164;-2.120;2023-05-07T06:36:02;90.50;;;12.80;;
22549;SDS011;11441;57.164;-2.120;2023-05-07T06:38:30;57.03;;;9.82;;
22549;SDS011;11441;57.164;-2.120;2023-05-07T06:40:57;63.00;;;10.30;;
22549;SDS011;11441;57.164;-2.120;2023-05-07T06:43:24;52.42;;;8.95;;
22549;SDS011;11441;57.164;-2.120;2023-05-07T06:46:06;57.00;;;9.30;;
22549;SDS011;11441;57.164;-2.120;2023-05-07T06:48:33;91.40;;;11.88;;
22549;SDS011;11441;57.164;-2.120;2023-05-07T06:51:04;104.13;;;12.07;;
22549;SDS011;11441;57.164;-2.120;2023-05-07T06:53:31;54.92;;;9.05;;
22549;SDS011;11441;57.164;-2.120;2023-05-07T06:56:00;92.45;;;13.73;;
22549;SDS011;11441;57.164;-2.120;2023-05-07T06:58:27;109.85;;;13.30;;
22549;SDS011;11441;57.164;-2.120;2023-05-07T07:00:54;86.68;;;11.35;;
22549;SDS011;11441;57.164;-2.120;2023-05-07T07:03:21;75.32;;;11.07;;
22549;SDS011;11441;57.164;-2.120;2023-05-07T07:05:51;105.40;;;13.63;;
22549;SDS011;11441;57.164;-2.120;2023-05-07T07:08:37;81.20;;;10.60;;
22549;SDS011;11441;57.164;-2.120;2023-05-07T07:11:06;102.15;;;12.82;;
22549;SDS011;11441;57.164;-2.120;2023-05-07T07:13:33;106.32;;;13.00;;
22549;SDS011;11441;57.164;-2.120;2023-05-07T07:16:00;149.88;;;16.13;;
22549;SDS011;11441;57.164;-2.120;2023-05-07T07:18:27;122.88;;;13.85;;
22549;SDS011;11441;57.164;-2.120;2023-05-07T07:20:54;110.45;;;14.02;;
22549;SDS011;11441;57.164;-2.120;2023-05-07T07:23:39;120.15;;;14.85;;
22549;SDS011;11441;57.164;-2.120;2023-05-07T07:26:05;84.00;;;13.57;;
22549;SDS011;11441;57.164;-2.120;2023-05-07T07:28:33;107.55;;;12.88;;
22549;SDS011;11441;57.164;-2.120;2023-05-07T07:33:48;110.15;;;12.82;;
22549;SDS011;11441;57.164;-2.120;2023-05-07T07:36:19;62.15;;;10.68;;
22549;SDS011;11441;57.164;-2.120;2023-05-07T07:38:49;74.00;;;11.32;;
22549;SDS011;11441;57.164;-2.120;2023-05-07T07:41:16;59.17;;;10.32;;
22549;SDS011;11441;57.164;-2.120;2023-05-07T07:43:43;40.70;;;9.38;;
22549;SDS011;11441;57.164;-2.120;2023-05-07T07:46:10;59.33;;;9.93;;
22549;SDS011;11441;57.164;-2.120;2023-05-07T07:48:37;38.80;;;8.70;;
22549;SDS011;11441;57.164;-2.120;2023-05-07T07:51:04;26.13;;;7.60;;
22549;SDS011;11441;57.164;-2.120;2023-05-07T07:53:31;35.55;;;7.65;;
22549;SDS011;11441;57.164;-2.120;2023-05-07T07:55:58;21.58;;;6.70;;
22549;SDS011;11441;57.164;-2.120;2023-05-07T07:58:29;25.08;;;7.18;;
22549;SDS011;11441;57.164;-2.120;2023-05-07T08:00:57;22.17;;;6.60;;
22549;SDS011;11441;57.164;-2.120;2023-05-07T08:03:25;15.98;;;7.18;;
22549;SDS011;11441;57.164;-2.120;2023-05-07T08:05:56;19.35;;;7.65;;
22549;SDS011;11441;57.164;-2.120;2023-05-07T08:08:24;21.15;;;7.00;;
22549;SDS011;11441;57.164;-2.120;2023-05-07T08:10:52;24.85;;;7.10;;
22549;SDS011;11441;57.164;-2.120;2023-05-07T08:13:36;37.45;;;8.07;;
22549;SDS011;11441;57.164;-2.120;2023-05-07T08:16:05;25.15;;;6.32;;
22549;SDS011;11441;57.164;-2.120;2023-05-07T08:18:34;15.75;;;5.35;;
22549;SDS011;11441;57.164;-2.120;2023-05-07T08:21:02;14.00;;;5.70;;
22549;SDS011;11441;57.164;-2.120;2023-05-07T08:23:30;10.45;;;4.93;;
22549;SDS011;11441;57.164;-2.120;2023-05-07T08:25:58;13.13;;;5.10;;
22549;SDS011;11441;57.164;-2.120;2023-05-07T08:28:44;15.90;;;6.75;;
22549;SDS011;11441;57.164;-2.120;2023-05-07T08:31:11;18.80;;;6.30;;
22549;SDS011;11441;57.164;-2.120;2023-05-07T08:33:40;13.27;;;5.35;;
22549;SDS011;11441;57.164;-2.120;2023-05-07T08:36:07;20.50;;;6.65;;
22549;SDS011;11441;57.164;-2.120;2023-05-07T08:38:34;34.67;;;7.70;;
22549;SDS011;11441;57.164;-2.120;2023-05-07T08:41:01;17.58;;;7.00;;
22549;SDS011;11441;57.164;-2.120;2023-05-07T08:43:30;34.88;;;8.05;;
22549;SDS011;11441;57.164;-2.120;2023-05-07T08:46:00;49.40;;;9.30;;
22549;SDS011;11441;57.164;-2.120;2023-05-07T08:48:33;85.53;;;12.80;;
22549;SDS011;11441;57.164;-2.120;2023-05-07T08:51:12;74.93;;;12.50;;
22549;SDS011;11441;57.164;-2.120;2023-05-07T08:53:40;98.03;;;13.27;;
22549;SDS011;11441;57.164;-2.120;2023-05-07T08:56:11;75.85;;;13.65;;
22549;SDS011;11441;57.164;-2.120;2023-05-07T08:58:39;70.70;;;11.52;;
22549;SDS011;11441;57.164;-2.120;2023-05-07T09:01:10;111.60;;;15.07;;
22549;SDS011;11441;57.164;-2.120;2023-05-07T09:03:44;101.55;;;15.60;;
22549;SDS011;11441;57.164;-2.120;2023-05-07T09:06:14;73.90;;;13.85;;
22549;SDS011;11441;57.164;-2.120;2023-05-07T09:08:48;68.38;;;12.02;;
22549;SDS011;11441;57.164;-2.120;2023-05-07T09:11:25;39.40;;;11.57;;
22549;SDS011;11441;57.164;-2.120;2023-05-07T09:13:55;30.30;;;10.80;;
22549;SDS011;11441;57.164;-2.120;2023-05-07T09:16:25;43.75;;;12.27;;
22549;SDS011;11441;57.164;-2.120;2023-05-07T09:18:53;28.17;;;10.57;;
22549;SDS011;11441;57.164;-2.120;2023-05-07T09:21:21;27.20;;;9.68;;
22549;SDS011;11441;57.164;-2.120;2023-05-07T09:23:52;25.55;;;10.10;;
22549;SDS011;11441;57.164;-2.120;2023-05-07T09:26:28;34.35;;;10.25;;
22549;SDS011;11441;57.164;-2.120;2023-05-07T09:28:55;35.58;;;11.32;;
22549;SDS011;11441;57.164;-2.120;2023-05-07T09:31:22;55.35;;;12.90;;
22549;SDS011;11441;57.164;-2.120;2023-05-07T09:33:54;78.63;;;15.45;;
22549;SDS011;11441;57.164;-2.120;2023-05-07T09:36:24;116.78;;;16.80;;
22549;SDS011;11441;57.164;-2.120;2023-05-07T09:38:51;102.57;;;16.70;;
22549;SDS011;11441;57.164;-2.120;2023-05-07T09:41:18;88.93;;;16.33;;
22549;SDS011;11441;57.164;-2.120;2023-05-07T09:44:02;73.82;;;15.75;;
22549;SDS011;11441;57.164;-2.120;2023-05-07T09:46:53;123.57;;;17.13;;
22549;SDS011;11441;57.164;-2.120;2023-05-07T09:49:35;107.95;;;16.23;;
22549;SDS011;11441;57.164;-2.120;2023-05-07T09:52:07;131.88;;;17.73;;
22549;SDS011;11441;57.164;-2.120;2023-05-07T09:54:54;95.38;;;15.95;;
22549;SDS011;11441;57.164;-2.120;2023-05-07T09:57:25;88.68;;;14.95;;
22549;SDS011;11441;57.164;-2.120;2023-05-07T09:59:58;97.80;;;16.13;;
22549;SDS011;11441;57.164;-2.120;2023-05-07T10:02:32;108.72;;;16.27;;
22549;SDS011;11441;57.164;-2.120;2023-05-07T10:05:03;69.47;;;13.93;;
22549;SDS011;11441;57.164;-2.120;2023-05-07T10:07:33;45.97;;;11.57;;
22549;SDS011;11441;57.164;-2.120;2023-05-07T10:10:05;112.30;;;17.90;;
22549;SDS011;11441;57.164;-2.120;2023-05-07T10:15:30;65.28;;;12.68;;
22549;SDS011;11441;57.164;-2.120;2023-05-07T10:17:59;35.33;;;9.95;;
22549;SDS011;11441;57.164;-2.120;2023-05-07T10:20:48;112.07;;;14.10;;
22549;SDS011;11441;57.164;-2.120;2023-05-07T10:23:19;145.77;;;16.38;;
22549;SDS011;11441;57.164;-2.120;2023-05-07T10:25:54;85.93;;;13.35;;
22549;SDS011;11441;57.164;-2.120;2023-05-07T10:28:30;68.72;;;13.63;;
22549;SDS011;11441;57.164;-2.120;2023-05-07T10:32:08;41.33;;;11.52;;
22549;SDS011;11441;57.164;-2.120;2023-05-07T10:34:20;24.45;;;10.35;;
22549;SDS011;11441;57.164;-2.120;2023-05-07T10:36:50;18.02;;;9.52;;
22549;SDS011;11441;57.164;-2.120;2023-05-07T10:39:20;14.75;;;7.63;;
22549;SDS011;11441;57.164;-2.120;2023-05-07T10:41:48;13.15;;;7.25;;
22549;SDS011;11441;57.164;-2.120;2023-05-07T10:44:26;10.85;;;6.55;;
22549;SDS011;11441;57.164;-2.120;2023-05-07T10:47:04;11.95;;;6.70;;
22549;SDS011;11441;57.164;-2.120;2023-05-07T10:49:32;10.38;;;6.03;;
22549;SDS011;11441;57.164;-2.120;2023-05-07T10:52:37;10.70;;;6.32;;
22549;SDS011;11441;57.164;-2.120;2023-05-07T10:58:27;6.13;;;4.32;;
22549;SDS011;11441;57.164;-2.120;2023-05-07T11:01:13;5.47;;;4.38;;
22549;SDS011;11441;57.164;-2.120;2023-05-07T11:04:12;6.40;;;4.22;;
22549;SDS011;11441;57.164;-2.120;2023-05-07T11:09:54;7.20;;;4.55;;
22549;SDS011;11441;57.164;-2.120;2023-05-07T11:15:44;6.85;;;4.68;;
22549;SDS011;11441;57.164;-2.120;2023-05-07T11:18:49;6.57;;;4.45;;
22549;SDS011;11441;57.164;-2.120;2023-05-07T11:24:37;5.22;;;4.22;;
22549;SDS011;11441;57.164;-2.120;2023-05-07T11:27:06;8.32;;;5.57;;
22549;SDS011;11441;57.164;-2.120;2023-05-07T11:29:35;7.22;;;4.80;;
22549;SDS011;11441;57.164;-2.120;2023-05-07T11:32:06;7.85;;;4.40;;
22549;SDS011;11441;57.164;-2.120;2023-05-07T11:34:43;7.07;;;4.82;;
22549;SDS011;11441;57.164;-2.120;2023-05-07T11:37:12;8.50;;;5.05;;
22549;SDS011;11441;57.164;-2.120;2023-05-07T11:40:02;8.50;;;4.82;;
22549;SDS011;11441;57.164;-2.120;2023-05-07T11:42:39;6.47;;;4.65;;
22549;SDS011;11441;57.164;-2.120;2023-05-07T11:45:09;8.35;;;5.50;;
22549;SDS011;11441;57.164;-2.120;2023-05-07T11:47:36;9.60;;;5.38;;
22549;SDS011;11441;57.164;-2.120;2023-05-07T11:50:07;9.38;;;5.70;;
22549;SDS011;11441;57.164;-2.120;2023-05-07T11:52:35;11.65;;;6.43;;
22549;SDS011;11441;57.164;-2.120;2023-05-07T11:55:02;11.60;;;7.78;;
22549;SDS011;11441;57.164;-2.120;2023-05-07T11:57:32;13.10;;;6.80;;
22549;SDS011;11441;57.164;-2.120;2023-05-07T12:00:00;7.75;;;5.88;;
22549;SDS011;11441;57.164;-2.120;2023-05-07T12:02:37;11.35;;;6.60;;
22549;SDS011;11441;57.164;-2.120;2023-05-07T12:05:05;10.88;;;6.53;;
22549;SDS011;11441;57.164;-2.120;2023-05-07T12:07:33;7.88;;;5.13;;
22549;SDS011;11441;57.164;-2.120;2023-05-07T12:10:04;6.03;;;4.13;;
22549;SDS011;11441;57.164;-2.120;2023-05-07T12:12:45;6.32;;;4.43;;
22549;SDS011;11441;57.164;-2.120;2023-05-07T12:15:15;8.00;;;4.20;;
22549;SDS011;11441;57.164;-2.120;2023-05-07T12:17:49;9.02;;;5.88;;
22549;SDS011;11441;57.164;-2.120;2023-05-07T12:20:17;12.77;;;8.20;;
22549;SDS011;11441;57.164;-2.120;2023-05-07T12:22:44;14.15;;;9.30;;
22549;SDS011;11441;57.164;-2.120;2023-05-07T12:25:11;17.15;;;9.55;;
22549;SDS011;11441;57.164;-2.120;2023-05-07T12:27:38;15.38;;;10.15;;
22549;SDS011;11441;57.164;-2.120;2023-05-07T12:30:05;13.43;;;8.82;;
22549;SDS011;11441;57.164;-2.120;2023-05-07T12:32:35;19.50;;;10.80;;
22549;SDS011;11441;57.164;-2.120;2023-05-07T12:35:03;15.13;;;9.38;;
22549;SDS011;11441;57.164;-2.120;2023-05-07T12:37:32;11.13;;;7.05;;
22549;SDS011;11441;57.164;-2.120;2023-05-07T12:40:06;14.30;;;7.65;;
22549;SDS011;11441;57.164;-2.120;2023-05-07T12:42:35;12.82;;;9.00;;
22549;SDS011;11441;57.164;-2.120;2023-05-07T12:48:01;12.75;;;8.43;;
22549;SDS011;11441;57.164;-2.120;2023-05-07T12:50:32;11.80;;;7.55;;
22549;SDS011;11441;57.164;-2.120;2023-05-07T12:52:59;13.88;;;8.25;;
22549;SDS011;11441;57.164;-2.120;2023-05-07T12:55:44;10.73;;;6.97;;
22549;SDS011;11441;57.164;-2.120;2023-05-07T13:00:54;10.32;;;6.93;;
22549;SDS011;11441;57.164;-2.120;2023-05-07T13:03:28;13.63;;;7.35;;
22549;SDS011;11441;57.164;-2.120;2023-05-07T13:06:00;11.38;;;6.55;;
22549;SDS011;11441;57.164;-2.120;2023-05-07T13:08:41;14.90;;;8.93;;
22549;SDS011;11441;57.164;-2.120;2023-05-07T13:11:11;15.68;;;9.40;;
22549;SDS011;11441;57.164;-2.120;2023-05-07T13:13:39;12.63;;;7.32;;
22549;SDS011;11441;57.164;-2.120;2023-05-07T13:16:08;18.42;;;10.45;;
22549;SDS011;11441;57.164;-2.120;2023-05-07T13:18:37;18.83;;;10.95;;
22549;SDS011;11441;57.164;-2.120;2023-05-07T13:21:05;20.42;;;11.75;;
22549;SDS011;11441;57.164;-2.120;2023-05-07T13:23:33;18.90;;;11.18;;
22549;SDS011;11441;57.164;-2.120;2023-05-07T13:26:00;16.95;;;10.32;;
22549;SDS011;11441;57.164;-2.120;2023-05-07T13:28:36;17.90;;;11.00;;
22549;SDS011;11441;57.164;-2.120;2023-05-07T13:31:03;17.85;;;9.05;;
22549;SDS011;11441;57.164;-2.120;2023-05-07T13:33:30;16.40;;;9.77;;
22549;SDS011;11441;57.164;-2.120;2023-05-07T13:35:57;17.00;;;9.65;;
22549;SDS011;11441;57.164;-2.120;2023-05-07T13:38:24;13.15;;;8.23;;
22549;SDS011;11441;57.164;-2.120;2023-05-07T13:40:51;13.18;;;7.63;;
22549;SDS011;11441;57.164;-2.120;2023-05-07T13:43:18;12.75;;;8.07;;
22549;SDS011;11441;57.164;-2.120;2023-05-07T13:45:45;10.98;;;6.90;;
22549;SDS011;11441;57.164;-2.120;2023-05-07T13:48:12;10.55;;;6.60;;
22549;SDS011;11441;57.164;-2.120;2023-05-07T13:50:39;9.65;;;6.25;;
22549;SDS011;11441;57.164;-2.120;2023-05-07T13:53:07;10.98;;;6.55;;
22549;SDS011;11441;57.164;-2.120;2023-05-07T13:55:34;8.68;;;5.57;;
22549;SDS011;11441;57.164;-2.120;2023-05-07T13:58:02;10.35;;;5.90;;
22549;SDS011;11441;57.164;-2.120;2023-05-07T14:00:32;8.60;;;5.97;;
22549;SDS011;11441;57.164;-2.120;2023-05-07T14:02:59;7.22;;;4.55;;
22549;SDS011;11441;57.164;-2.120;2023-05-07T14:05:26;9.82;;;5.78;;
22549;SDS011;11441;57.164;-2.120;2023-05-07T14:07:55;5.78;;;4.05;;
22549;SDS011;11441;57.164;-2.120;2023-05-07T14:10:23;5.60;;;3.75;;
22549;SDS011;11441;57.164;-2.120;2023-05-07T14:12:51;5.32;;;3.97;;
22549;SDS011;11441;57.164;-2.120;2023-05-07T14:15:19;3.53;;;2.80;;
22549;SDS011;11441;57.164;-2.120;2023-05-07T14:17:46;4.03;;;3.00;;
22549;SDS011;11441;57.164;-2.120;2023-05-07T14:20:13;5.43;;;3.10;;
22549;SDS011;11441;57.164;-2.120;2023-05-07T14:22:40;2.72;;;2.53;;
22549;SDS011;11441;57.164;-2.120;2023-05-07T14:25:07;3.30;;;2.70;;
22549;SDS011;11441;57.164;-2.120;2023-05-07T14:27:36;3.33;;;2.92;;
22549;SDS011;11441;57.164;-2.120;2023-05-07T14:30:03;4.10;;;3.22;;
22549;SDS011;11441;57.164;-2.120;2023-05-07T14:32:30;3.47;;;2.65;;
22549;SDS011;11441;57.164;-2.120;2023-05-07T14:34:57;6.65;;;3.70;;
22549;SDS011;11441;57.164;-2.120;2023-05-07T14:37:24;5.05;;;3.75;;
22549;SDS011;11441;57.164;-2.120;2023-05-07T14:39:51;4.63;;;3.40;;
22549;SDS011;11441;57.164;-2.120;2023-05-07T14:42:17;4.90;;;3.45;;
22549;SDS011;11441;57.164;-2.120;2023-05-07T14:44:46;5.60;;;4.15;;
22549;SDS011;11441;57.164;-2.120;2023-05-07T14:47:31;7.10;;;4.53;;
22549;SDS011;11441;57.164;-2.120;2023-05-07T14:49:58;9.40;;;5.68;;
22549;SDS011;11441;57.164;-2.120;2023-05-07T14:52:27;7.45;;;5.93;;
22549;SDS011;11441;57.164;-2.120;2023-05-07T14:54:54;8.68;;;6.15;;
22549;SDS011;11441;57.164;-2.120;2023-05-07T14:57:21;10.60;;;7.32;;
22549;SDS011;11441;57.164;-2.120;2023-05-07T14:59:48;14.88;;;7.10;;
22549;SDS011;11441;57.164;-2.120;2023-05-07T15:02:15;15.20;;;10.02;;
22549;SDS011;11441;57.164;-2.120;2023-05-07T15:04:46;14.65;;;8.73;;
22549;SDS011;11441;57.164;-2.120;2023-05-07T15:07:13;22.20;;;12.60;;